Terminal Aerodrome Forecast
Issued by NWS Sioux Falls, SD

Home | Current Version | Previous Version | Text Only | Print | Product List | Glossary Off
Versions: 1 2 3 4 5 6 7 8 9 10 11 12 13 14 15 16 17

000
FTUS43 KFSD 152343
TAFHON
TAF
KHON 152343Z 1600/1624 14010KT P6SM BKN025
     FM160500 11008KT P6SM -SHRA VCTS BKN035 OVC070CB
     FM160900 15004KT P6SM OVC015
     FM161400 03008KT P6SM OVC020
     FM161900 34010KT P6SM OVC035=

USA.gov is the U.S. government's official web portal to all federal, state and local government web resources and services.